Time;durP1;ratioP1;P1;durP2;ratioP2;P2;SDS_P1;SDS_P2;PMS_P1;PMS_P2;Temp;Humidity;BMP_temperature;BMP_pressure;BME280_temperature;BME280_humidity;BME280_pressure;Samples;Min_cycle;Max_cycle;Signal;HPM_P1;HPM_P2
2022/07/28 00:01:22;;;;;;;3.92;2.25;;;;;;;11.18;100.00;163487.94;5029004;28;20385;-61
2022/07/28 00:03:48;;;;;;;8.02;2.90;;;;;;;11.04;100.00;163450.13;5030117;28;20030;-62
2022/07/28 00:06:13;;;;;;;4.50;3.17;;;;;;;10.97;100.00;163431.22;5026071;28;20041;-61
2022/07/28 00:08:38;;;;;;;9.30;4.22;;;;;;;10.89;100.00;163411.00;5029905;28;20445;-61
2022/07/28 00:11:04;;;;;;;4.30;2.97;;;;;;;10.82;100.00;163393.44;5027835;28;20353;-60
2022/07/28 00:13:29;;;;;;;4.15;2.67;;;;;;;10.79;100.00;163386.69;5030007;28;20025;-62
2022/07/28 00:15:54;;;;;;;8.73;4.93;;;;;;;10.78;100.00;163382.66;5024035;28;20038;-61
2022/07/28 00:18:20;;;;;;;6.55;2.65;;;;;;;10.78;100.00;163384.00;5010503;28;20457;-62
2022/07/28 00:20:45;;;;;;;3.53;2.10;;;;;;;10.77;100.00;163381.28;5019866;28;20390;-62
2022/07/28 00:23:10;;;;;;;6.70;2.78;;;;;;;10.72;100.00;163367.78;5010810;28;20056;-61
2022/07/28 00:25:36;;;;;;;8.32;2.40;;;;;;;10.63;100.00;163343.50;5009187;28;20045;-61
2022/07/28 00:28:01;;;;;;;6.47;3.65;;;;;;;10.51;100.00;163312.44;5010340;28;20351;-61
2022/07/28 00:30:26;;;;;;;4.05;1.80;;;;;;;10.36;100.00;163273.25;5009240;28;20046;-61
2022/07/28 00:32:52;;;;;;;3.08;2.50;;;;;;;10.24;100.00;163240.91;5021049;28;20029;-61
2022/07/28 00:35:17;;;;;;;4.68;2.90;;;;;;;10.20;100.00;163230.06;5013507;28;20042;-61
2022/07/28 00:37:42;;;;;;;19.55;3.90;;;;;;;10.16;100.00;163220.63;5026502;28;20093;-62
2022/07/28 00:40:08;;;;;;;9.50;3.50;;;;;;;10.07;100.00;163197.69;5020204;28;20049;-60
2022/07/28 00:42:34;;;;;;;3.88;2.08;;;;;;;10.02;100.00;163184.19;5014067;28;20053;-60
2022/07/28 00:44:59;;;;;;;7.88;2.70;;;;;;;10.03;100.00;163186.88;5012612;28;20469;-60
2022/07/28 00:47:24;;;;;;;6.75;3.80;;;;;;;10.05;100.00;163192.28;5014754;28;20477;-60
2022/07/28 00:49:50;;;;;;;6.78;2.42;;;;;;;10.06;100.00;163195.00;5021488;28;20037;-60
2022/07/28 00:52:17;;;;;;;4.22;2.63;;;;;;;10.04;100.00;163188.25;5013878;28;20041;-59
2022/07/28 00:54:42;;;;;;;4.53;3.25;;;;;;;10.04;100.00;163189.59;5012433;28;20030;-60
2022/07/28 00:57:08;;;;;;;5.32;2.65;;;;;;;10.05;100.00;163192.28;5013487;28;20039;-60
2022/07/28 00:59:33;;;;;;;6.88;3.60;;;;;;;10.08;100.00;163200.41;5018343;28;20044;-59
2022/07/28 01:01:58;;;;;;;4.60;2.35;;;;;;;10.11;100.00;163207.16;5033511;28;20041;-59
2022/07/28 01:04:24;;;;;;;4.05;2.42;;;;;;;10.12;100.00;163211.19;5015176;28;20478;-59
2022/07/28 01:07:17;;;;;;;5.97;3.08;;;;;;;10.23;100.00;163238.19;5013877;28;20025;-60
2022/07/28 01:09:50;;;;;;;3.20;2.72;;;;;;;10.31;100.00;163259.78;5019533;28;20041;-61
2022/07/28 01:12:25;;;;;;;5.63;2.70;;;;;;;10.40;100.00;163282.78;5021032;28;20022;-60
2022/07/28 01:15:03;;;;;;;3.83;2.45;;;;;;;10.47;100.00;163303.00;5026849;28;20521;-60
2022/07/28 01:17:37;;;;;;;4.32;2.30;;;;;;;10.54;100.00;163319.19;5013372;28;20108;-61
2022/07/28 01:20:04;;;;;;;4.97;4.05;;;;;;;10.59;100.00;163332.72;5021475;28;20099;-62
2022/07/28 01:22:37;;;;;;;5.15;3.47;;;;;;;10.60;100.00;163335.41;5033082;28;20065;-62
2022/07/28 01:25:20;;;;;;;9.10;3.78;;;;;;;10.59;100.00;163334.03;5031749;28;20038;-61
2022/07/28 01:28:20;;;;;;;6.03;2.40;;;;;;;10.65;100.00;163348.91;5032500;28;20061;-61
2022/07/28 01:30:52;;;;;;;10.30;4.05;;;;;;;10.75;100.00;163375.91;5014952;28;20050;-60
2022/07/28 01:33:24;;;;;;;4.68;2.15;;;;;;;10.82;100.00;163392.09;5012890;28;20018;-60
2022/07/28 01:36:01;;;;;;;4.25;3.17;;;;;;;10.97;100.00;163431.22;5029679;28;20041;-60
2022/07/28 01:38:28;;;;;;;4.75;3.22;;;;;;;11.05;100.00;163454.22;5031366;28;20449;-62
2022/07/28 01:40:55;;;;;;;3.25;2.45;;;;;;;11.14;100.00;163475.78;5013888;28;20050;-62
2022/07/28 01:43:23;;;;;;;4.97;2.13;;;;;;;11.15;100.00;163478.47;5019613;28;20060;-62
2022/07/28 01:45:50;;;;;;;6.60;3.00;;;;;;;11.14;100.00;163475.78;5031242;28;20045;-62
2022/07/28 01:48:18;;;;;;;5.55;2.63;;;;;;;11.11;100.00;163470.41;5018672;28;20033;-62
2022/07/28 01:50:46;;;;;;;;;;;;;;;11.14;100.00;163475.78;5026896;28;20103;-61
2022/07/28 01:53:12;;;;;;;5.38;3.15;;;;;;;11.09;100.00;163465.00;5032535;28;19927;-60
2022/07/28 01:55:41;;;;;;;14.98;2.50;;;;;;;11.18;100.00;163486.59;5013541;28;20038;-60
2022/07/28 01:58:07;;;;;;;6.80;3.08;;;;;;;11.22;100.00;163497.38;5022178;28;20029;-59
2022/07/28 02:00:34;;;;;;;2.05;1.85;;;;;;;11.24;100.00;163502.81;5011057;28;20129;-59
2022/07/28 02:03:04;;;;;;;5.50;2.85;;;;;;;11.13;100.00;163474.44;5012542;28;20034;-59
2022/07/28 02:05:32;;;;;;;3.85;2.45;;;;;;;11.01;100.00;163443.38;5010530;28;20046;-59
2022/07/28 02:08:00;;;;;;;5.35;2.00;;;;;;;10.89;100.00;163411.00;5013247;28;20053;-60
2022/07/28 02:10:27;;;;;;;4.68;2.25;;;;;;;10.78;100.00;163384.00;5019057;28;20041;-60
2022/07/28 02:12:55;;;;;;;6.25;2.90;;;;;;;10.66;100.00;163351.59;5031921;28;20037;-60
2022/07/28 02:15:21;;;;;;;3.83;3.42;;;;;;;10.69;100.00;163359.66;5023514;28;20124;-60
2022/07/28 02:17:50;;;;;;;6.88;3.00;;;;;;;10.75;100.00;163374.53;5012460;28;20039;-61
2022/07/28 02:20:17;;;;;;;5.22;2.78;;;;;;;10.76;100.00;163378.56;5018714;28;20049;-61
2022/07/28 02:22:44;;;;;;;3.22;2.30;;;;;;;10.75;100.00;163375.91;5013361;28;20034;-60
2022/07/28 02:25:10;;;;;;;5.03;2.75;;;;;;;10.68;100.00;163357.03;5010182;28;20120;-61
2022/07/28 02:27:40;;;;;;;6.03;2.58;;;;;;;10.68;100.00;163355.63;5011699;28;20058;-60
2022/07/28 02:30:14;;;;;;;5.28;2.45;;;;;;;10.61;100.00;163339.44;5019192;28;20512;-61
2022/07/28 02:32:45;;;;;;;8.80;2.40;;;;;;;10.54;100.00;163319.19;5031710;28;20437;-61
2022/07/28 02:35:52;;;;;;;27.45;4.43;;;;;;;10.45;100.00;163297.63;5029921;28;20485;-61
2022/07/28 02:38:24;;;;;;;9.80;2.30;;;;;;;10.41;100.00;163286.81;5030974;28;20025;-61
2022/07/28 02:40:53;;;;;;;4.50;2.20;;;;;;;10.35;100.00;163270.56;5028994;28;20523;-60
2022/07/28 02:43:23;;;;;;;;;;;;;;;10.27;100.00;163248.97;5024077;28;20062;-61
2022/07/28 02:45:52;;;;;;;6.07;2.47;;;;;;;10.18;100.00;163224.66;5010210;28;20341;-61
2022/07/28 02:48:22;;;;;;;6.47;2.22;;;;;;;10.10;100.00;163205.78;5011226;28;20061;-61
2022/07/28 02:50:50;;;;;;;2.90;2.10;;;;;;;9.99;100.00;163176.09;5027694;28;20041;-61
2022/07/28 02:53:16;;;;;;;3.15;2.50;;;;;;;9.83;100.00;163135.63;5030910;28;20025;-60
2022/07/28 02:55:43;;;;;;;8.38;3.28;;;;;;;9.74;100.00;163110.00;5009867;28;20367;-60
2022/07/28 02:58:09;;;;;;;4.05;2.60;;;;;;;9.74;100.00;163111.34;5011672;28;20523;-60
2022/07/28 03:00:35;;;;;;;6.72;2.35;;;;;;;9.75;100.00;163114.03;5010346;28;20045;-60
2022/07/28 03:03:01;;;;;;;3.83;3.22;;;;;;;9.76;100.00;163116.75;5011276;28;20381;-62
2022/07/28 03:05:27;;;;;;;5.03;2.80;;;;;;;9.78;100.00;163120.78;5009911;28;20489;-63
2022/07/28 03:07:54;;;;;;;7.47;3.10;;;;;;;9.75;100.00;163114.03;5023916;28;20036;-63
2022/07/28 03:10:25;;;;;;;6.63;2.38;;;;;;;9.69;100.00;163097.84;5027872;28;20069;-63
2022/07/28 03:12:51;;;;;;;6.75;2.35;;;;;;;9.64;100.00;163084.38;5031415;28;20104;-63
2022/07/28 03:15:16;;;;;;;9.05;2.53;;;;;;;9.72;100.00;163105.91;5029232;28;20064;-63
2022/07/28 03:17:42;;;;;;;6.65;3.25;;;;;;;9.76;100.00;163116.75;5030874;28;20057;-63
2022/07/28 03:20:09;;;;;;;3.50;2.85;;;;;;;9.78;100.00;163122.16;5016434;28;20128;-63
2022/07/28 03:22:34;;;;;;;5.15;2.78;;;;;;;9.82;100.00;163132.94;5017699;28;20076;-63
2022/07/28 03:25:01;;;;;;;5.80;2.38;;;;;;;9.86;100.00;163142.38;5019644;28;20034;-63
2022/07/28 03:27:29;;;;;;;3.60;2.90;;;;;;;9.87;100.00;163143.69;5015974;28;20088;-62
2022/07/28 03:30:03;;;;;;;3.25;2.17;;;;;;;9.81;100.00;163130.22;5010135;28;20040;-62
2022/07/28 03:32:33;;;;;;;2.47;2.28;;;;;;;9.74;100.00;163111.34;5010395;28;20945;-62
2022/07/28 03:34:58;;;;;;;5.70;2.90;;;;;;;9.66;100.00;163091.13;5018577;28;20063;-62
2022/07/28 03:37:38;;;;;;;11.30;3.92;;;;;;;9.62;100.00;163078.97;5018378;28;20109;-62
2022/07/28 03:40:07;;;;;;;7.95;2.85;;;;;;;9.61;100.00;163076.28;5016955;28;20042;-62
2022/07/28 03:42:34;;;;;;;6.85;2.60;;;;;;;9.65;100.00;163087.03;5019569;28;20026;-61
2022/07/28 03:45:00;;;;;;;5.15;2.88;;;;;;;9.69;100.00;163099.19;5018553;28;20038;-62
2022/07/28 03:47:25;;;;;;;5.60;2.63;;;;;;;9.72;100.00;163105.91;5020779;28;20614;-62
2022/07/28 03:49:51;;;;;;;11.63;3.45;;;;;;;9.72;100.00;163105.91;5016879;28;20041;-62
2022/07/28 03:52:17;;;;;;;7.88;3.78;;;;;;;9.74;100.00;163110.00;5020085;28;20025;-62
2022/07/28 03:54:44;;;;;;;8.98;3.60;;;;;;;9.74;100.00;163111.34;5017988;28;20041;-62
2022/07/28 03:57:10;;;;;;;4.75;3.33;;;;;;;9.73;100.00;163108.63;5018609;28;20022;-62
2022/07/28 03:59:35;;;;;;;12.13;2.88;;;;;;;9.72;100.00;163105.91;5016289;28;20497;-62
2022/07/28 04:02:01;;;;;;;9.45;4.20;;;;;;;9.68;100.00;163095.16;5024544;28;20025;-62
2022/07/28 04:04:26;;;;;;;3.97;2.67;;;;;;;9.68;100.00;163096.47;5017389;28;20052;-62
2022/07/28 04:06:52;;;;;;;6.00;2.90;;;;;;;9.67;100.00;163092.44;5025720;28;20026;-61
2022/07/28 04:09:17;;;;;;;6.63;3.17;;;;;;;9.63;100.00;163083.00;5016172;28;20102;-62
2022/07/28 04:11:42;;;;;;;6.85;3.72;;;;;;;9.62;100.00;163078.97;5010837;28;20025;-62
2022/07/28 04:14:08;;;;;;;4.68;3.92;;;;;;;9.60;100.00;163073.56;5014228;28;20032;-62
2022/07/28 04:16:33;;;;;;;4.00;3.40;;;;;;;9.55;100.00;163061.41;5013823;28;20052;-62
2022/07/28 04:18:59;;;;;;;10.93;4.38;;;;;;;9.63;100.00;163083.00;5024217;28;20503;-61
2022/07/28 04:21:24;;;;;;;5.70;2.70;;;;;;;9.62;100.00;163080.31;5032488;28;20041;-62
2022/07/28 04:23:50;;;;;;;5.60;3.28;;;;;;;9.64;100.00;163084.38;5027473;28;20385;-62
2022/07/28 04:26:16;;;;;;;5.70;2.60;;;;;;;9.69;100.00;163097.84;5019836;28;20150;-62
2022/07/28 04:28:42;;;;;;;7.32;3.95;;;;;;;9.73;100.00;163108.63;5023488;28;20067;-62
2022/07/28 04:31:07;;;;;;;9.00;3.75;;;;;;;9.79;100.00;163124.81;5024343;28;20034;-59
2022/07/28 04:33:32;;;;;;;7.68;3.13;;;;;;;9.90;100.00;163151.81;5033536;28;20029;-60
2022/07/28 04:36:00;;;;;;;4.95;4.00;;;;;;;9.99;100.00;163177.44;5013875;28;20147;-61
2022/07/28 04:38:25;;;;;;;8.10;2.90;;;;;;;10.11;100.00;163207.16;5017628;28;20609;-61
2022/07/28 04:40:51;;;;;;;6.95;4.40;;;;;;;10.18;100.00;163224.66;5028863;28;20065;-61
2022/07/28 04:43:16;;;;;;;8.45;4.28;;;;;;;10.35;100.00;163270.56;5023458;28;20040;-61
2022/07/28 04:45:43;;;;;;;8.68;4.32;;;;;;;10.48;100.00;163305.69;5021059;28;20099;-60
2022/07/28 04:48:09;;;;;;;14.02;4.13;;;;;;;10.61;100.00;163339.44;5022160;28;20025;-60
2022/07/28 04:50:35;;;;;;;5.05;2.95;;;;;;;10.72;100.00;163367.78;5022333;28;20037;-60
2022/07/28 04:53:00;;;;;;;6.32;2.83;;;;;;;10.83;100.00;163394.81;5022715;28;20021;-60
2022/07/28 04:55:25;;;;;;;8.52;2.92;;;;;;;10.93;100.00;163423.16;5021880;28;20068;-68
2022/07/28 04:57:51;;;;;;;5.88;4.07;;;;;;;11.03;100.00;163447.44;5023086;28;20489;-62
2022/07/28 05:00:16;;;;;;;8.32;3.38;;;;;;;11.10;100.00;163467.72;5020742;28;20037;-62
2022/07/28 05:02:43;;;;;;;4.38;3.80;;;;;;;11.21;100.00;163494.69;5018396;28;20526;-61
2022/07/28 05:05:09;;;;;;;5.30;3.15;;;;;;;11.26;100.00;163508.22;5022767;28;20072;-61
2022/07/28 05:07:39;;;;;;;6.45;3.72;;;;;;;11.30;100.00;163519.00;5016810;28;20056;-61
2022/07/28 05:10:06;;;;;;;8.77;3.75;;;;;;;11.34;100.00;163529.84;5021135;28;20047;-61
2022/07/28 05:12:31;;;;;;;11.65;4.25;;;;;;;11.39;100.00;163543.31;5021248;28;20148;-61
2022/07/28 05:14:57;;;;;;;8.63;4.00;;;;;;;11.41;100.00;163548.75;5016432;28;20065;-61
2022/07/28 05:17:22;;;;;;;11.75;3.10;;;;;;;11.48;100.00;163564.94;5021454;28;20034;-61
2022/07/28 05:19:47;;;;;;;9.45;2.75;;;;;;;11.52;100.00;163577.09;5021486;28;20045;-61
2022/07/28 05:22:13;;;;;;;8.60;3.55;;;;;;;11.58;100.00;163591.91;5022687;28;20128;-61
2022/07/28 05:24:38;;;;;;;6.90;3.45;;;;;;;11.64;100.00;163608.16;5019932;28;20050;-61
2022/07/28 05:27:04;;;;;;;11.18;4.38;;;;;;;11.69;100.00;163621.66;5027153;28;20068;-61
2022/07/28 05:29:29;;;;;;;15.70;5.75;;;;;;;11.79;100.00;163647.31;5022345;28;21252;-61
2022/07/28 05:31:54;;;;;;;7.80;5.63;;;;;;;11.80;100.00;163648.69;5020620;28;20049;-61
2022/07/28 05:34:20;;;;;;;8.15;5.93;;;;;;;11.89;100.00;163674.34;5020812;28;20477;-61
2022/07/28 05:36:45;;;;;;;7.43;3.58;;;;;;;12.01;100.00;163705.47;5021940;28;20013;-60
2022/07/28 05:39:10;;;;;;;13.32;4.13;;;;;;;12.14;100.00;163737.88;5018493;28;20497;-61
2022/07/28 05:41:36;;;;;;;7.88;3.72;;;;;;;12.26;100.00;163768.97;5018758;28;20389;-61
2022/07/28 05:44:01;;;;;;;5.95;4.32;;;;;;;12.33;100.00;163789.22;5022344;28;20018;-61
2022/07/28 05:46:27;;;;;;;14.02;3.95;;;;;;;12.50;100.00;163832.47;5021020;28;20038;-61
2022/07/28 05:48:53;;;;;;;4.60;3.03;;;;;;;12.61;100.00;163862.22;5018899;28;20056;-60
2022/07/28 05:51:18;;;;;;;9.63;3.30;;;;;;;12.74;100.00;163894.63;5020239;28;20034;-61
2022/07/28 05:53:43;;;;;;;9.93;3.05;;;;;;;12.83;100.00;163918.97;5019243;28;20018;-61
2022/07/28 05:56:09;;;;;;;4.57;2.95;;;;;;;12.81;100.00;163913.56;5023802;28;20038;-58
2022/07/28 05:58:34;;;;;;;10.07;2.83;;;;;;;12.96;100.00;163954.13;5015930;28;20033;-61
2022/07/28 06:01:01;;;;;;;4.78;2.30;;;;;;;13.08;100.00;163983.81;5024401;28;20057;-61
2022/07/28 06:03:29;;;;;;;14.25;2.92;;;;;;;13.19;100.00;164013.59;5031454;28;20021;-61
2022/07/28 06:05:55;;;;;;;7.35;2.63;;;;;;;13.29;100.00;164040.59;5011076;28;20046;-61
2022/07/28 06:08:21;;;;;;;5.82;1.92;;;;;;;13.40;100.00;164067.72;5025711;28;20032;-61
2022/07/28 06:11:00;;;;;;;8.25;2.17;;;;;;;13.48;100.00;164089.34;5011201;28;20116;-61
2022/07/28 06:13:26;;;;;;;7.43;2.47;;;;;;;13.59;100.00;164119.09;5011876;28;20033;-60
2022/07/28 06:15:52;;;;;;;7.07;2.00;;;;;;;13.70;100.00;164146.16;5010680;28;20057;-60
2022/07/28 06:18:18;;;;;;;7.32;2.45;;;;;;;13.72;100.00;164151.56;5019958;28;20083;-60
2022/07/28 06:20:45;;;;;;;6.15;2.17;;;;;;;13.72;100.00;164151.56;5010660;28;20042;-60
2022/07/28 06:23:10;;;;;;;5.85;1.92;;;;;;;13.70;100.00;164146.16;5010399;28;20543;-60
2022/07/28 06:25:36;;;;;;;2.10;1.65;;;;;;;13.75;100.00;164159.66;5028108;28;20049;-60
2022/07/28 06:28:01;;;;;;;8.70;2.10;;;;;;;13.85;100.00;164186.72;5031669;28;20057;-60
2022/07/28 06:30:27;;;;;;;8.38;1.77;;;;;;;14.01;100.00;164227.31;5026901;28;20089;-60
2022/07/28 06:32:55;;;;;;;7.72;2.53;;;;;;;14.19;100.00;164275.97;5028166;28;20079;-60
2022/07/28 06:35:21;;;;;;;7.18;1.92;;;;;;;14.42;100.00;164335.50;5019707;28;20148;-60
2022/07/28 06:37:48;;;;;;;7.15;2.17;;;;;;;14.64;100.00;164393.72;5012584;28;20520;-60
2022/07/28 06:40:14;;;;;;;2.85;1.88;;;;;;;14.89;100.00;164460.06;5010248;28;20048;-60
2022/07/28 06:42:41;;;;;;;2.67;1.50;;;;;;;15.13;100.00;164520.94;5026226;28;20037;-60
2022/07/28 06:45:07;;;;;;;12.43;1.88;;;;;;;15.36;100.00;164583.22;5029876;28;20528;-60
2022/07/28 06:47:33;;;;;;;5.63;1.67;;;;;;;15.50;100.00;164619.78;5031103;28;20021;-60
2022/07/28 06:49:58;;;;;;;7.15;1.88;;;;;;;16.06;100.00;164764.72;5028492;28;20266;-60
2022/07/28 06:52:25;;;;;;;9.77;2.13;;;;;;;16.68;100.00;164928.59;5010977;28;20076;-60
2022/07/28 06:54:52;;;;;;;1.77;0.93;;;;;;;17.19;100.00;165062.81;5010509;28;20057;-60
2022/07/28 06:57:19;;;;;;;6.70;2.73;;;;;;;17.60;100.00;165169.84;5012599;28;20032;-60
2022/07/28 06:59:45;;;;;;;2.03;1.35;;;;;;;17.55;100.00;165156.28;5023677;28;20468;-60
2022/07/28 07:02:11;;;;;;;3.40;1.20;;;;;;;17.53;100.00;165150.88;5029602;28;20087;-60
2022/07/28 07:04:37;;;;;;;3.22;1.40;;;;;;;17.61;100.00;165172.53;5029949;28;20044;-60
2022/07/28 07:07:02;;;;;;;3.08;1.10;;;;;;;17.56;100.00;165159.00;5029992;28;20022;-60
2022/07/28 07:09:27;;;;;;;5.57;1.05;;;;;;;17.72;100.00;165201.03;5015496;28;20114;-60
2022/07/28 07:11:53;;;;;;;2.22;1.00;;;;;;;17.72;100.00;165202.38;5028739;28;20017;-60
2022/07/28 07:14:18;;;;;;;4.20;1.38;;;;;;;17.61;100.00;165172.53;5028703;28;20029;-60
2022/07/28 07:16:43;;;;;;;7.32;2.55;;;;;;;17.57;100.00;165161.72;5030678;28;20014;-59
2022/07/28 07:19:09;;;;;;;4.28;1.55;;;;;;;17.74;100.00;165207.81;5028986;28;20036;-60
2022/07/28 07:21:34;;;;;;;5.07;2.17;;;;;;;18.05;100.00;165287.81;5028568;28;20045;-59
2022/07/28 07:23:59;;;;;;;3.47;1.30;;;;;;;17.79;100.00;165218.63;5029329;28;20025;-60
2022/07/28 07:26:25;;;;;;;4.68;1.13;;;;;;;18.21;100.00;165329.84;5026461;28;20037;-60
2022/07/28 07:28:50;;;;;;;4.50;1.52;;;;;;;18.36;100.00;165370.50;5025616;28;20025;-60
2022/07/28 07:31:16;;;;;;;4.18;1.13;;;;;;;18.34;100.00;165365.13;5009360;28;20042;-60
2022/07/28 07:33:41;;;;;;;6.28;1.73;;;;;;;18.22;100.00;165332.56;5022902;28;20029;-60
2022/07/28 07:36:07;;;;;;;3.00;1.20;;;;;;;18.01;100.00;165278.34;5010177;28;20048;-60
2022/07/28 07:38:32;;;;;;;3.55;1.30;;;;;;;18.01;100.00;165278.34;5023320;28;20084;-60
2022/07/28 07:40:59;;;;;;;3.88;1.00;;;;;;;18.19;100.00;165324.44;5029344;28;20431;-60
2022/07/28 07:43:24;;;;;;;4.75;1.23;;;;;;;18.15;100.00;165313.56;5023948;28;20087;-60
2022/07/28 07:45:50;;;;;;;4.88;1.48;;;;;;;18.24;100.00;165338.00;5018674;28;20444;-60
2022/07/28 07:48:15;;;;;;;2.05;1.10;;;;;;;18.14;100.00;165312.22;5015539;28;20037;-60
2022/07/28 07:50:40;;;;;;;4.93;1.15;;;;;;;18.29;100.00;165350.19;5013510;28;20042;-60
2022/07/28 07:53:06;;;;;;;2.30;1.63;;;;;;;18.34;100.00;165365.13;5014415;28;20022;-60
2022/07/28 07:55:31;;;;;;;4.55;1.00;;;;;;;18.31;100.00;165355.63;5013301;28;20038;-60
2022/07/28 07:57:57;;;;;;;4.75;1.20;;;;;;;18.11;100.00;165304.06;5029700;28;20033;-60
2022/07/28 08:00:22;;;;;;;3.28;1.55;;;;;;;17.64;100.00;165180.69;5032142;28;20091;-60
2022/07/28 08:02:47;;;;;;;3.78;1.25;;;;;;;17.57;100.00;165161.72;5014855;28;20025;-60
2022/07/28 08:05:13;;;;;;;4.18;0.95;;;;;;;17.74;100.00;165207.81;5013968;28;20523;-60
2022/07/28 08:07:38;;;;;;;3.35;1.08;;;;;;;17.67;100.00;165188.84;5026570;28;20033;-60
2022/07/28 08:10:05;;;;;;;3.72;1.00;;;;;;;17.95;100.00;165262.06;5033049;28;20045;-60
2022/07/28 08:12:31;;;;;;;3.10;0.98;;;;;;;18.33;100.00;165362.41;5023005;28;20105;-60
2022/07/28 08:14:56;;;;;;;2.78;0.82;;;;;;;18.38;100.00;165375.94;5013098;28;20100;-59
2022/07/28 08:17:22;;;;;;;3.63;1.20;;;;;;;18.65;100.00;165446.44;5023798;28;20037;-60
2022/07/28 08:19:47;;;;;;;5.32;2.08;;;;;;;18.99;100.00;165536.03;5032545;28;20044;-60
2022/07/28 08:22:13;;;;;;;1.30;1.00;;;;;;;19.47;100.00;165660.88;5033575;28;20029;-60
2022/07/28 08:24:38;;;;;;;3.72;1.30;;;;;;;19.77;100.00;165739.56;5032673;28;20042;-60
2022/07/28 08:27:04;;;;;;;3.28;1.20;;;;;;;20.40;100.00;165905.16;5023104;28;20038;-60
2022/07/28 08:29:29;;;;;;;5.13;1.08;;;;;;;20.75;100.00;165998.91;5012323;28;20025;-61
2022/07/28 08:31:55;;;;;;;3.95;1.50;;;;;;;21.28;100.00;166137.41;5014302;28;20030;-60
2022/07/28 08:34:20;;;;;;;2.92;0.90;;;;;;;21.92;100.00;166304.53;5013943;28;20032;-60
2022/07/28 08:36:45;;;;;;;1.45;0.75;;;;;;;21.88;100.00;166295.03;5020778;28;20080;-60
2022/07/28 08:39:11;;;;;;;4.18;0.90;;;;;;;21.72;100.00;166252.88;5031672;28;20033;-60
2022/07/28 08:42:05;;;;;;;4.43;1.17;;;;;;;21.54;100.00;166206.69;5012651;28;20092;-60
2022/07/28 08:44:43;;;;;;;2.25;1.45;;;;;;;21.56;100.00;166212.06;5013757;28;20104;-60
2022/07/28 08:47:10;;;;;;;2.73;1.13;;;;;;;21.14;100.00;166099.38;5023708;28;20045;-60
2022/07/28 08:49:39;;;;;;;4.03;2.00;;;;;;;21.10;100.00;166089.88;5034010;28;20451;-61
2022/07/28 08:52:06;;;;;;;0.80;0.77;;;;;;;21.03;100.00;166070.88;5032027;28;20116;-60
2022/07/28 08:54:31;;;;;;;2.25;1.13;;;;;;;20.87;99.82;166030.13;5033414;28;20412;-60
2022/07/28 08:56:58;;;;;;;1.55;0.90;;;;;;;20.95;100.00;166049.16;5022200;28;20114;-65
2022/07/28 08:59:24;;;;;;;4.47;0.98;;;;;;;20.83;98.02;166017.91;5025328;28;20065;-61
2022/07/28 09:01:50;;;;;;;1.95;0.90;;;;;;;20.31;99.34;165882.09;5026306;28;20409;-62
2022/07/28 09:04:16;;;;;;;3.03;1.00;;;;;;;21.00;100.00;166062.72;5016493;28;20026;-61
2022/07/28 09:06:42;;;;;;;3.05;1.00;;;;;;;20.89;99.26;166034.19;5024087;28;20526;-61
2022/07/28 09:09:08;;;;;;;2.67;1.48;;;;;;;20.87;99.07;166030.13;5033766;28;20025;-61
2022/07/28 09:11:36;;;;;;;3.97;1.25;;;;;;;21.56;97.22;166210.72;5029895;28;20041;-62
2022/07/28 09:14:02;;;;;;;4.25;0.90;;;;;;;21.85;93.95;166288.25;5033321;28;20038;-62
2022/07/28 09:16:27;;;;;;;4.00;1.58;;;;;;;21.69;91.09;166244.75;5026530;28;20543;-61
2022/07/28 09:18:53;;;;;;;3.90;1.13;;;;;;;21.94;96.13;166309.94;5031603;28;20406;-62
2022/07/28 09:21:18;;;;;;;4.30;1.40;;;;;;;21.65;96.79;166233.84;5023197;28;20042;-61
2022/07/28 09:23:45;;;;;;;4.45;1.65;;;;;;;21.04;91.47;166074.94;5032439;28;20033;-62
2022/07/28 09:26:12;;;;;;;1.90;0.80;;;;;;;21.82;91.35;166278.69;5012026;28;20159;-61
2022/07/28 09:28:54;;;;;;;3.05;1.17;;;;;;;22.25;94.28;166391.44;5013234;28;20393;-61
2022/07/28 09:31:21;;;;;;;4.63;1.40;;;;;;;22.67;89.91;166502.97;5011562;28;20385;-62
2022/07/28 09:33:56;;;;;;;2.72;1.70;;;;;;;22.80;87.64;166538.28;5014391;28;20193;-62
2022/07/28 09:36:21;;;;;;;5.60;1.17;;;;;;;22.60;87.65;166485.28;5011089;28;20130;-61
2022/07/28 09:38:47;;;;;;;4.47;1.45;;;;;;;22.49;87.91;166455.34;5013445;28;20505;-61
2022/07/28 09:41:17;;;;;;;9.40;3.53;;;;;;;21.40;86.67;166168.66;5011263;28;20042;-61
2022/07/28 09:43:44;;;;;;;4.97;1.98;;;;;;;20.38;89.90;165899.72;5031132;28;20439;-61
2022/07/28 09:46:21;;;;;;;4.82;1.00;;;;;;;20.91;92.24;166040.97;5030929;28;20073;-61
2022/07/28 09:48:49;;;;;;;3.45;0.90;;;;;;;21.37;91.53;166160.47;5012428;28;20030;-61
2022/07/28 09:51:16;;;;;;;4.63;0.90;;;;;;;20.53;87.81;165939.13;5010959;28;20065;-60
2022/07/28 09:53:42;;;;;;;2.50;1.42;;;;;;;21.04;93.15;166073.53;5030689;28;20025;-61
2022/07/28 09:56:08;;;;;;;2.25;1.00;;;;;;;21.60;92.74;166220.28;5029929;28;20107;-61
2022/07/28 09:58:34;;;;;;;5.97;1.55;;;;;;;21.91;89.31;166301.81;5031567;28;20469;-61
2022/07/28 10:01:14;;;;;;;3.40;1.30;;;;;;;21.39;84.60;166165.94;5028303;28;20042;-60
2022/07/28 10:03:41;;;;;;;2.95;1.00;;;;;;;20.74;86.04;165994.78;5013557;28;20542;-61
2022/07/28 10:06:13;;;;;;;3.65;1.35;;;;;;;20.64;87.53;165967.63;5011459;28;20083;-61
2022/07/28 10:08:49;;;;;;;3.13;1.80;;;;;;;20.28;89.24;165875.34;5025300;28;20035;-60
2022/07/28 10:11:17;;;;;;;4.13;1.58;;;;;;;20.79;90.03;166008.41;5009694;28;20068;-61
2022/07/28 10:14:04;;;;;;;2.60;0.95;;;;;;;21.28;90.99;166137.41;5030279;28;20026;-60
2022/07/28 10:16:42;;;;;;;5.32;0.98;;;;;;;21.62;88.89;166227.06;5029573;28;20166;-61
2022/07/28 10:19:07;;;;;;;5.20;1.17;;;;;;;21.16;87.79;166106.16;5032217;28;20022;-61
2022/07/28 10:21:38;;;;;;;3.28;1.27;;;;;;;20.99;86.13;166059.97;5026193;28;20045;-60
2022/07/28 10:24:05;;;;;;;4.63;1.55;;;;;;;21.44;89.56;166179.50;5020588;28;20021;-61
2022/07/28 10:26:36;;;;;;;4.97;1.95;;;;;;;21.52;87.25;166201.22;5028606;28;20037;-60
2022/07/28 10:29:05;;;;;;;4.63;1.08;;;;;;;21.79;88.62;166271.91;5031462;28;20026;-60
2022/07/28 10:31:34;;;;;;;4.68;0.90;;;;;;;22.08;87.26;166347.97;5029847;28;20048;-60
2022/07/28 10:34:01;;;;;;;1.40;1.15;;;;;;;22.08;83.59;166346.63;5022904;28;20036;-60
2022/07/28 10:36:27;;;;;;;3.10;1.43;;;;;;;22.29;83.48;166402.34;5019475;28;20540;-61
2022/07/28 10:39:01;;;;;;;1.80;1.15;;;;;;;22.78;82.45;166532.84;5012539;28;20030;-61
2022/07/28 10:41:31;;;;;;;3.38;1.30;;;;;;;23.04;81.77;166600.81;5018590;28;20105;-60
2022/07/28 10:43:57;;;;;;;1.55;1.20;;;;;;;23.27;80.92;166660.69;5030145;28;20049;-61
2022/07/28 10:46:23;;;;;;;2.92;1.40;;;;;;;23.54;81.20;166731.34;5029897;28;20119;-65
2022/07/28 10:48:49;;;;;;;4.35;1.60;;;;;;;23.12;79.65;166622.53;5015267;28;20072;-60
2022/07/28 10:51:14;;;;;;;1.30;0.93;;;;;;;23.47;79.54;166712.31;5009892;28;20416;-60
2022/07/28 10:53:47;;;;;;;3.25;0.90;;;;;;;23.37;77.88;166686.50;5028616;28;20033;-60
2022/07/28 10:56:25;;;;;;;3.88;1.58;;;;;;;23.12;73.88;166622.53;5015299;28;20355;-60
2022/07/28 10:58:57;;;;;;;;;;;;;;;21.92;73.86;166304.53;5026812;28;20029;-60
2022/07/28 11:01:48;;;;;;;3.53;1.08;;;;;;;21.98;79.19;166322.16;5012238;28;19917;-60
2022/07/28 11:04:39;;;;;;;2.63;1.50;;;;;;;21.74;80.88;166258.31;5021467;28;20048;-60
2022/07/28 11:07:12;;;;;;;2.38;0.98;;;;;;;21.40;79.99;166168.66;5031041;28;20147;-60
2022/07/28 11:09:38;;;;;;;2.28;0.95;;;;;;;21.96;81.61;166315.38;5030118;28;20037;-60
2022/07/28 11:12:04;;;;;;;2.85;1.15;;;;;;;22.55;77.56;166471.69;5022174;28;20492;-60
2022/07/28 11:14:32;;;;;;;2.55;0.75;;;;;;;23.12;76.41;166622.53;5017479;28;20491;-60
2022/07/28 11:17:03;;;;;;;2.42;0.80;;;;;;;23.43;75.12;166702.81;5030990;28;20021;-60
2022/07/28 11:19:42;;;;;;;2.78;0.90;;;;;;;23.00;74.30;166589.91;5017197;28;20109;-60
2022/07/28 11:22:13;;;;;;;2.60;1.10;;;;;;;23.67;76.40;166766.69;5013975;28;20021;-61